Time;durP1;ratioP1;P1;durP2;ratioP2;P2;SDS_P1;SDS_P2;PMS_P1;PMS_P2;Temp;Humidity;BMP_temperature;BMP_pressure;BME280_temperature;BME280_humidity;BME280_pressure;Samples;Min_cycle;Max_cycle;Signal;HPM_P1;HPM_P2
2023/05/02 00:02:08;;;;;;;0.00;0.00;;;13.00;99.90;;;;;;6305155;22;20108;-87
2023/05/02 00:04:34;;;;;;;0.00;0.00;;;13.00;99.90;;;;;;6305137;22;20010;-89
2023/05/02 00:06:59;;;;;;;0.00;0.00;;;13.00;99.90;;;;;;6305058;22;20010;-87
2023/05/02 00:09:25;;;;;;;0.00;0.00;;;13.10;99.90;;;;;;6304342;22;20057;-88
2023/05/02 00:11:50;;;;;;;0.00;0.00;;;13.10;99.90;;;;;;6305515;22;19995;-88
2023/05/02 00:14:16;;;;;;;0.00;0.00;;;13.10;99.90;;;;;;6305074;22;20389;-88
2023/05/02 00:16:41;;;;;;;0.00;0.00;;;13.10;99.90;;;;;;6304807;22;20007;-89
2023/05/02 00:19:07;;;;;;;0.00;0.00;;;13.10;99.90;;;;;;6304865;22;20026;-89
2023/05/02 00:21:32;;;;;;;0.00;0.00;;;13.10;99.90;;;;;;6305670;22;20035;-87
2023/05/02 00:23:59;;;;;;;0.00;0.00;;;13.10;99.90;;;;;;6304697;22;20089;-89
2023/05/02 00:26:25;;;;;;;0.00;0.00;;;13.00;99.90;;;;;;6304866;22;20037;-87
2023/05/02 00:28:51;;;;;;;0.00;0.00;;;13.10;99.90;;;;;;6305108;22;20003;-87
2023/05/02 00:31:16;;;;;;;0.00;0.00;;;13.00;99.90;;;;;;6305785;22;20008;-89
2023/05/02 00:33:42;;;;;;;0.00;0.00;;;13.00;99.90;;;;;;6306240;22;20600;-88
2023/05/02 00:36:15;;;;;;;0.00;0.00;;;12.90;99.90;;;;;;6306958;22;20014;-88
2023/05/02 00:38:40;;;;;;;0.00;0.00;;;12.80;99.90;;;;;;6306544;22;20025;-89
2023/05/02 00:41:06;;;;;;;0.00;0.00;;;12.70;99.90;;;;;;6303460;22;20003;-89
2023/05/02 00:43:31;;;;;;;0.00;0.00;;;12.60;99.90;;;;;;6305112;22;20014;-89
2023/05/02 00:45:57;;;;;;;0.00;0.00;;;12.50;99.90;;;;;;6306017;22;19991;-88
2023/05/02 00:48:24;;;;;;;0.00;0.00;;;12.60;99.90;;;;;;6306536;22;20006;-89
2023/05/02 00:50:50;;;;;;;0.00;0.00;;;12.60;99.90;;;;;;6304359;22;20385;-90
2023/05/02 00:53:16;;;;;;;0.00;0.00;;;12.50;99.90;;;;;;6306421;22;20007;-89
2023/05/02 00:55:41;;;;;;;0.00;0.00;;;12.50;99.90;;;;;;6306341;22;20530;-90
2023/05/02 00:58:12;;;;;;;0.00;0.00;;;12.60;99.90;;;;;;6304500;22;20243;-88
2023/05/02 01:00:56;;;;;;;0.00;0.00;;;12.60;99.90;;;;;;6305965;22;20003;-90
2023/05/02 01:04:08;;;;;;;0.00;0.00;;;12.50;99.90;;;;;;6331743;22;20005;-89
2023/05/02 01:06:57;;;;;;;0.00;0.00;;;12.40;99.90;;;;;;6188602;22;20530;-88
2023/05/02 01:09:47;;;;;;;0.00;0.00;;;12.30;99.90;;;;;;6331399;22;19999;-88
2023/05/02 01:12:19;;;;;;;0.00;0.00;;;12.30;99.90;;;;;;6305647;22;20030;-88
2023/05/02 01:14:50;;;;;;;0.00;0.00;;;12.30;99.90;;;;;;6329603;22;20003;-90
2023/05/02 01:17:18;;;;;;;0.00;0.00;;;12.30;99.90;;;;;;6304609;22;20020;-88
2023/05/02 01:19:56;;;;;;;0.00;0.00;;;12.30;99.90;;;;;;6305915;22;20003;-88
2023/05/02 01:22:25;;;;;;;0.00;0.00;;;12.30;99.90;;;;;;6305758;22;20011;-88
2023/05/02 01:25:12;;;;;;;0.00;0.00;;;12.30;99.90;;;;;;6305053;22;20003;-88
2023/05/02 01:27:54;;;;;;;0.00;0.00;;;12.10;99.90;;;;;;6300926;22;19999;-90
2023/05/02 01:30:21;;;;;;;0.00;0.00;;;12.30;99.90;;;;;;6329372;22;20469;-88
2023/05/02 01:32:48;;;;;;;0.00;0.00;;;12.00;99.90;;;;;;6306919;22;20013;-88
2023/05/02 01:35:15;;;;;;;0.00;0.00;;;11.80;99.90;;;;;;6304995;22;20034;-89
2023/05/02 01:37:44;;;;;;;0.00;0.00;;;11.80;99.90;;;;;;6306989;22;20029;-88
2023/05/02 01:40:10;;;;;;;0.00;0.00;;;11.90;99.90;;;;;;6303789;22;20037;-88
2023/05/02 01:42:38;;;;;;;0.00;0.00;;;12.10;99.90;;;;;;6302896;22;20007;-88
2023/05/02 01:45:06;;;;;;;0.00;0.00;;;12.00;99.90;;;;;;6306498;22;20004;-88
2023/05/02 01:47:34;;;;;;;0.00;0.00;;;12.10;99.90;;;;;;6306826;22;20463;-88
2023/05/02 01:50:06;;;;;;;0.00;0.00;;;12.10;99.90;;;;;;6305352;22;20216;-88
2023/05/02 01:52:32;;;;;;;0.00;0.00;;;12.10;99.90;;;;;;6308068;22;20007;-89
2023/05/02 01:55:00;;;;;;;0.00;0.00;;;12.10;99.90;;;;;;6305778;22;20454;-90
2023/05/02 01:57:26;;;;;;;0.00;0.00;;;12.10;99.90;;;;;;6306485;22;20029;-89
2023/05/02 01:59:55;;;;;;;0.03;0.03;;;12.10;99.90;;;;;;6305628;22;20543;-88
2023/05/02 02:02:25;;;;;;;0.00;0.00;;;12.10;99.90;;;;;;6305774;22;20003;-88
2023/05/02 02:04:54;;;;;;;0.00;0.00;;;12.10;99.90;;;;;;6306411;22;20007;-88
2023/05/02 02:07:19;;;;;;;0.00;0.00;;;12.10;99.90;;;;;;6306578;22;20377;-89
2023/05/02 02:09:45;;;;;;;0.00;0.00;;;12.00;99.90;;;;;;6305190;22;20003;-88
2023/05/02 02:12:16;;;;;;;0.00;0.00;;;12.00;99.90;;;;;;6306617;22;20446;-88
2023/05/02 02:14:55;;;;;;;0.00;0.00;;;12.10;99.90;;;;;;6332648;22;20021;-88
2023/05/02 02:17:29;;;;;;;0.00;0.00;;;12.00;99.90;;;;;;6306808;22;20038;-89
2023/05/02 02:19:55;;;;;;;0.00;0.00;;;12.00;99.90;;;;;;6305650;22;20003;-88
2023/05/02 02:22:25;;;;;;;0.00;0.00;;;12.00;99.90;;;;;;6307093;22;20005;-88
2023/05/02 02:24:52;;;;;;;0.00;0.00;;;12.00;99.90;;;;;;6306547;22;20010;-88
2023/05/02 02:27:18;;;;;;;0.00;0.00;;;12.00;99.90;;;;;;6306055;22;20006;-88
2023/05/02 02:29:44;;;;;;;0.00;0.00;;;12.10;99.90;;;;;;6307771;22;20031;-87
2023/05/02 02:32:09;;;;;;;0.00;0.00;;;12.10;99.90;;;;;;6281571;22;20427;-89
2023/05/02 02:34:35;;;;;;;0.00;0.00;;;12.10;99.90;;;;;;6280741;22;20025;-88
2023/05/02 02:37:14;;;;;;;0.00;0.00;;;12.20;99.90;;;;;;6280982;22;20000;-87
2023/05/02 02:40:08;;;;;;;0.00;0.00;;;12.20;99.90;;;;;;6283353;22;20357;-88
2023/05/02 02:42:45;;;;;;;0.00;0.00;;;12.20;99.90;;;;;;6280255;22;20023;-87
2023/05/02 02:45:37;;;;;;;0.00;0.00;;;12.20;99.90;;;;;;6283043;22;19999;-88
2023/05/02 02:48:31;;;;;;;0.00;0.00;;;12.20;99.90;;;;;;6215944;22;20007;-88
2023/05/02 02:51:21;;;;;;;0.00;0.00;;;12.20;99.90;;;;;;6281607;22;20023;-87
2023/05/02 02:54:12;;;;;;;0.10;0.10;;;12.10;99.90;;;;;;6282452;22;20014;-88
2023/05/02 02:56:40;;;;;;;0.00;0.00;;;12.10;99.90;;;;;;6282203;22;20007;-88
2023/05/02 02:59:27;;;;;;;0.00;0.00;;;12.10;99.90;;;;;;6282110;22;20014;-88
2023/05/02 03:02:07;;;;;;;0.00;0.00;;;12.00;99.90;;;;;;6282150;22;20121;-88
2023/05/02 03:04:35;;;;;;;0.00;0.00;;;12.00;99.90;;;;;;6282600;22;20454;-88
2023/05/02 03:07:01;;;;;;;0.00;0.00;;;12.10;99.90;;;;;;6282696;22;20342;-88
2023/05/02 03:09:29;;;;;;;0.00;0.00;;;12.10;99.90;;;;;;6309541;22;20007;-89
2023/05/02 03:11:55;;;;;;;0.00;0.00;;;12.10;99.90;;;;;;6309067;22;19999;-89
2023/05/02 03:14:21;;;;;;;0.00;0.00;;;12.10;99.90;;;;;;6282458;22;20003;-90
2023/05/02 03:16:47;;;;;;;0.00;0.00;;;12.00;99.90;;;;;;6282063;22;20456;-87
2023/05/02 03:19:13;;;;;;;0.05;0.05;;;12.00;99.90;;;;;;6281715;22;20009;-87
2023/05/02 03:21:39;;;;;;;0.00;0.00;;;;;;;;;;6281286;22;19999;-88
2023/05/02 03:24:04;;;;;;;0.10;0.10;;;11.70;99.90;;;;;;6281810;22;19999;-89
2023/05/02 03:26:30;;;;;;;0.00;0.00;;;11.60;99.90;;;;;;6281307;22;20435;-88
2023/05/02 03:28:56;;;;;;;0.00;0.00;;;11.70;99.90;;;;;;6280774;22;20000;-87
2023/05/02 03:31:22;;;;;;;0.00;0.00;;;11.70;99.90;;;;;;6281079;22;20096;-88
2023/05/02 03:33:48;;;;;;;0.03;0.03;;;11.70;99.90;;;;;;6281841;22;20006;-87
2023/05/02 03:36:14;;;;;;;0.00;0.00;;;11.60;99.90;;;;;;6280709;22;19999;-89
2023/05/02 03:38:40;;;;;;;0.10;0.10;;;11.20;99.90;;;;;;6282044;22;20007;-87
2023/05/02 03:41:05;;;;;;;0.00;0.00;;;11.10;99.90;;;;;;6281177;22;20090;-88
2023/05/02 03:43:31;;;;;;;0.10;0.10;;;11.10;99.90;;;;;;6280728;22;20007;-89
2023/05/02 03:45:57;;;;;;;0.10;0.10;;;11.00;99.90;;;;;;6281818;22;20007;-87
2023/05/02 03:48:23;;;;;;;0.10;0.10;;;;;;;;;;6281253;22;20026;-89
2023/05/02 03:50:49;;;;;;;0.00;0.00;;;11.10;99.90;;;;;;6280605;22;20052;-90
2023/05/02 03:53:15;;;;;;;0.00;0.00;;;11.00;99.90;;;;;;6281070;22;20096;-89
2023/05/02 03:55:42;;;;;;;0.00;0.00;;;11.10;99.90;;;;;;6280683;22;20132;-88
2023/05/02 03:58:09;;;;;;;0.10;0.10;;;11.10;99.90;;;;;;6279257;22;20031;-89
2023/05/02 04:00:35;;;;;;;0.00;0.00;;;11.20;99.90;;;;;;6279128;22;20010;-88
2023/05/02 04:03:01;;;;;;;0.10;0.10;;;11.10;99.90;;;;;;6281028;22;20007;-88
2023/05/02 04:05:27;;;;;;;0.10;0.10;;;11.10;99.90;;;;;;6281136;22;20423;-88
2023/05/02 04:07:53;;;;;;;0.00;0.00;;;11.10;99.90;;;;;;6280226;22;20003;-87
2023/05/02 04:10:18;;;;;;;0.10;0.10;;;11.10;99.90;;;;;;6281878;22;20094;-88
2023/05/02 04:12:44;;;;;;;0.00;0.00;;;11.00;99.90;;;;;;6279935;22;20137;-88
2023/05/02 04:15:10;;;;;;;0.00;0.00;;;;;;;;;;6281400;22;20003;-89
2023/05/02 04:17:36;;;;;;;0.10;0.10;;;11.00;99.90;;;;;;6281629;22;20334;-88
2023/05/02 04:20:03;;;;;;;0.00;0.00;;;;;;;;;;6280916;22;20011;-90
2023/05/02 04:22:29;;;;;;;0.00;0.00;;;10.90;99.90;;;;;;6280743;22;20003;-88
2023/05/02 04:24:55;;;;;;;0.10;0.10;;;11.00;99.90;;;;;;6282096;22;20147;-88
2023/05/02 04:27:20;;;;;;;0.00;0.00;;;11.00;99.90;;;;;;6280458;22;20355;-89
2023/05/02 04:29:50;;;;;;;0.00;0.00;;;11.40;99.90;;;;;;6288309;22;20011;-89
2023/05/02 04:32:15;;;;;;;0.10;0.10;;;10.90;99.90;;;;;;6306897;22;19999;-90
2023/05/02 04:34:41;;;;;;;0.10;0.10;;;11.00;99.90;;;;;;6304426;22;19999;-87
2023/05/02 04:37:07;;;;;;;0.00;0.00;;;11.00;99.90;;;;;;6304959;22;20439;-89
2023/05/02 04:39:33;;;;;;;0.00;0.00;;;11.20;99.90;;;;;;6305956;22;20476;-90
2023/05/02 04:41:59;;;;;;;0.00;0.00;;;11.30;99.90;;;;;;6306436;22;20003;-88
2023/05/02 04:44:25;;;;;;;0.10;0.10;;;11.00;99.90;;;;;;6307036;22;20060;-88
2023/05/02 04:46:50;;;;;;;0.00;0.00;;;10.90;99.90;;;;;;6306309;22;20006;-89
2023/05/02 04:49:16;;;;;;;0.10;0.10;;;11.00;99.90;;;;;;6309525;22;20000;-88
2023/05/02 04:51:41;;;;;;;0.10;0.10;;;11.10;99.90;;;;;;6305307;22;20203;-89
2023/05/02 04:54:07;;;;;;;0.00;0.00;;;10.90;99.90;;;;;;6305934;22;20000;-90
2023/05/02 04:56:32;;;;;;;0.10;0.10;;;10.90;99.90;;;;;;6304912;22;20102;-89
2023/05/02 04:58:58;;;;;;;0.00;0.00;;;10.80;99.90;;;;;;6303275;22;20007;-90
2023/05/02 05:01:26;;;;;;;0.10;0.10;;;10.90;99.90;;;;;;6304484;22;20014;-90
2023/05/02 05:03:52;;;;;;;0.00;0.00;;;11.00;99.90;;;;;;6304421;22;20145;-90
2023/05/02 05:06:18;;;;;;;0.10;0.10;;;10.70;99.90;;;;;;6303669;22;20011;-90
2023/05/02 05:08:44;;;;;;;0.00;0.00;;;10.60;99.90;;;;;;6304665;22;20454;-89
2023/05/02 05:11:10;;;;;;;0.00;0.00;;;10.60;99.90;;;;;;6305533;22;20003;-89
2023/05/02 05:13:36;;;;;;;0.00;0.00;;;10.70;99.90;;;;;;6303279;22;20358;-90
2023/05/02 05:16:02;;;;;;;0.10;0.10;;;10.70;99.90;;;;;;6305933;22;20003;-89
2023/05/02 05:18:28;;;;;;;0.08;0.08;;;10.70;99.90;;;;;;6304586;22;20007;-90
2023/05/02 05:20:53;;;;;;;0.03;0.03;;;10.90;99.90;;;;;;6303910;22;20083;-91
2023/05/02 05:23:19;;;;;;;0.10;0.10;;;12.00;99.90;;;;;;6303466;22;20000;-91
2023/05/02 05:25:44;;;;;;;0.10;0.10;;;11.00;99.90;;;;;;6305515;22;20026;-91
2023/05/02 05:28:13;;;;;;;0.10;0.10;;;10.50;99.90;;;;;;6305455;22;19999;-91
2023/05/02 05:30:39;;;;;;;0.10;0.10;;;;;;;;;;6308164;22;20045;-90
2023/05/02 05:33:12;;;;;;;0.10;0.10;;;9.80;99.90;;;;;;6307727;22;20011;-90
2023/05/02 05:35:38;;;;;;;0.10;0.10;;;;;;;;;;6306990;22;20004;-91
2023/05/02 05:38:03;;;;;;;0.10;0.10;;;;;;;;;;6306196;22;20014;-92
2023/05/02 05:40:30;;;;;;;0.10;0.10;;;9.40;99.90;;;;;;6307232;22;20003;-90
2023/05/02 05:42:56;;;;;;;0.10;0.10;;;;;;;;;;6306539;22;20346;-91
2023/05/02 05:45:22;;;;;;;0.10;0.10;;;;;;;;;;6306288;22;20003;-90
2023/05/02 05:47:48;;;;;;;0.10;0.10;;;;;;;;;;6305158;22;20003;-91
2023/05/02 05:50:14;;;;;;;0.00;0.00;;;;;;;;;;6306565;22;20004;-91
2023/05/02 05:52:40;;;;;;;0.10;0.10;;;;;;;;;;6306494;22;20012;-91
2023/05/02 05:55:06;;;;;;;0.10;0.10;;;9.00;99.90;;;;;;6308111;22;20101;-91
2023/05/02 05:57:32;;;;;;;0.10;0.10;;;9.10;99.90;;;;;;6306991;22;20003;-91
2023/05/02 05:59:58;;;;;;;0.00;0.00;;;;;;;;;;6307996;22;20005;-90
2023/05/02 06:02:23;;;;;;;0.10;0.10;;;9.30;99.90;;;;;;6307152;22;20010;-92
2023/05/02 06:04:49;;;;;;;0.10;0.10;;;;;;;;;;6308263;22;20026;-93
2023/05/02 06:07:18;;;;;;;0.10;0.10;;;9.40;99.90;;;;;;6307224;22;20426;-92
2023/05/02 06:09:49;;;;;;;0.10;0.10;;;9.10;99.90;;;;;;6307642;22;20447;-93
2023/05/02 06:12:18;;;;;;;0.00;0.00;;;;;;;;;;6305875;22;20033;-91
2023/05/02 06:14:44;;;;;;;0.10;0.10;;;;;;;;;;6306452;22;19995;-91
2023/05/02 06:17:09;;;;;;;0.10;0.10;;;;;;;;;;6308490;22;20106;-89
2023/05/02 06:19:35;;;;;;;0.10;0.10;;;;;;;;;;6308263;22;20304;-89
2023/05/02 06:22:01;;;;;;;0.10;0.10;;;;;;;;;;6306139;22;20000;-90
2023/05/02 06:24:28;;;;;;;0.10;0.10;;;9.30;99.90;;;;;;6307207;22;20583;-91
2023/05/02 06:26:54;;;;;;;0.10;0.10;;;;;;;;;;6306720;22;20000;-90
2023/05/02 06:29:20;;;;;;;0.10;0.10;;;9.20;99.90;;;;;;6307160;22;20014;-91
2023/05/02 06:31:45;;;;;;;0.10;0.10;;;9.30;99.90;;;;;;6308323;22;19991;-91
2023/05/02 06:34:11;;;;;;;0.00;0.00;;;;;;;;;;6308560;22;20007;-90
2023/05/02 06:36:37;;;;;;;0.10;0.10;;;9.30;99.90;;;;;;6307942;22;20030;-90
2023/05/02 06:39:03;;;;;;;0.10;0.10;;;;;;;;;;6308742;22;20007;-90
2023/05/02 06:41:28;;;;;;;0.10;0.10;;;9.30;99.90;;;;;;6308634;22;20454;-88
2023/05/02 06:43:54;;;;;;;0.10;0.10;;;10.10;99.90;;;;;;6304188;22;19999;-91
2023/05/02 06:46:20;;;;;;;0.10;0.10;;;9.30;99.90;;;;;;6307421;22;20006;-89
2023/05/02 06:48:45;;;;;;;0.10;0.10;;;9.30;99.90;;;;;;6306322;22;20431;-92
2023/05/02 06:51:13;;;;;;;0.10;0.10;;;9.40;99.90;;;;;;6309470;22;20005;-89
2023/05/02 06:53:40;;;;;;;0.10;0.10;;;;;;;;;;6307165;22;20030;-92
2023/05/02 06:56:06;;;;;;;0.10;0.10;;;;;;;;;;6306583;22;20014;-90
2023/05/02 06:58:32;;;;;;;0.10;0.10;;;;;;;;;;6306695;22;20023;-90
2023/05/02 07:00:58;;;;;;;0.10;0.10;;;9.60;99.90;;;;;;6306413;22;20003;-92
2023/05/02 07:03:24;;;;;;;0.00;0.00;;;;;;;;;;6307210;22;20010;-89
2023/05/02 07:05:49;;;;;;;0.10;0.10;;;;;;;;;;6308655;22;20006;-91
2023/05/02 07:08:15;;;;;;;0.00;0.00;;;9.60;99.90;;;;;;6307710;22;20489;-90
2023/05/02 07:10:41;;;;;;;0.00;0.00;;;;;;;;;;6310334;22;20031;-92
2023/05/02 07:13:07;;;;;;;0.00;0.00;;;;;;;;;;6307568;22;20014;-92
2023/05/02 07:15:33;;;;;;;0.10;0.10;;;;;;;;;;6310251;22;20007;-91
2023/05/02 07:17:59;;;;;;;0.10;0.10;;;;;;;;;;6304531;22;20011;-91
2023/05/02 07:20:28;;;;;;;0.10;0.10;;;;;;;;;;6300932;22;20513;-90
2023/05/02 07:22:53;;;;;;;0.03;0.03;;;;;;;;;;6307786;22;20022;-91
2023/05/02 07:25:19;;;;;;;0.10;0.10;;;9.90;99.90;;;;;;6307088;22;20004;-92
2023/05/02 07:27:45;;;;;;;0.10;0.10;;;;;;;;;;6306135;22;20133;-90
2023/05/02 07:30:11;;;;;;;0.10;0.10;;;9.70;99.90;;;;;;6305280;22;20007;-92
2023/05/02 07:32:36;;;;;;;0.10;0.10;;;9.80;99.90;;;;;;6301845;22;20014;-91
2023/05/02 07:35:02;;;;;;;0.10;0.10;;;;;;;;;;6303373;22;20031;-91
2023/05/02 07:37:35;;;;;;;0.10;0.10;;;9.70;99.90;;;;;;6306600;22;20004;-90
2023/05/02 07:40:00;;;;;;;0.10;0.10;;;9.70;99.90;;;;;;6304143;22;20452;-89
2023/05/02 07:42:30;;;;;;;0.10;0.10;;;9.70;99.90;;;;;;6302116;22;20086;-92
2023/05/02 07:44:56;;;;;;;0.10;0.10;;;;;;;;;;6306420;22;20003;-91
2023/05/02 07:47:21;;;;;;;0.05;0.05;;;9.80;99.90;;;;;;6303816;22;20048;-91
2023/05/02 07:49:51;;;;;;;0.10;0.10;;;9.80;99.90;;;;;;6303710;22;19999;-90
2023/05/02 07:52:18;;;;;;;;;;;9.80;99.90;;;;;;6306572;22;19996;-90
2023/05/02 07:54:44;;;;;;;0.00;0.00;;;;;;;;;;6278719;22;19903;-90
2023/05/02 07:57:10;;;;;;;0.03;0.03;;;9.80;99.90;;;;;;6304196;22;20007;-91
2023/05/02 07:59:36;;;;;;;0.10;0.10;;;9.90;99.90;;;;;;6303810;22;20336;-90
2023/05/02 08:02:01;;;;;;;0.10;0.10;;;10.00;99.90;;;;;;6307976;22;20009;-91
2023/05/02 08:04:27;;;;;;;0.10;0.10;;;10.10;99.90;;;;;;6303951;22;20003;-91
2023/05/02 08:06:54;;;;;;;0.10;0.10;;;9.80;99.90;;;;;;6307012;22;20068;-92
2023/05/02 08:09:20;;;;;;;0.10;0.10;;;;;;;;;;6305608;22;19999;-90
2023/05/02 08:11:45;;;;;;;0.10;0.10;;;9.80;99.90;;;;;;6304007;22;20005;-90
2023/05/02 08:14:11;;;;;;;0.10;0.10;;;10.80;99.90;;;;;;6305781;22;20458;-92
2023/05/02 08:16:37;;;;;;;0.10;0.10;;;;;;;;;;6306003;22;20011;-91
2023/05/02 08:19:03;;;;;;;0.10;0.10;;;;;;;;;;6306077;22;20434;-93
2023/05/02 08:21:30;;;;;;;0.10;0.10;;;9.70;99.90;;;;;;6304259;22;20003;-90
2023/05/02 08:23:57;;;;;;;0.08;0.08;;;9.70;99.90;;;;;;6304456;22;20061;-90
2023/05/02 08:26:23;;;;;;;0.00;0.00;;;;;;;;;;6304268;22;20007;-91
2023/05/02 08:28:50;;;;;;;0.00;0.00;;;;;;;;;;6304595;22;20129;-91
2023/05/02 08:31:18;;;;;;;0.10;0.10;;;9.60;99.90;;;;;;6307628;22;20022;-92
2023/05/02 08:33:45;;;;;;;0.00;0.00;;;;;;;;;;6303672;22;20010;-90
2023/05/02 08:36:11;;;;;;;0.10;0.10;;;9.60;99.90;;;;;;6304242;22;20014;-91
2023/05/02 08:38:37;;;;;;;0.00;0.00;;;;;;;;;;6305889;22;20010;-88
2023/05/02 08:41:18;;;;;;;0.00;0.00;;;9.50;99.90;;;;;;6305378;22;20007;-92
2023/05/02 08:43:47;;;;;;;0.00;0.00;;;9.70;99.90;;;;;;6303553;22;20398;-89
2023/05/02 08:46:14;;;;;;;0.00;0.00;;;9.70;99.90;;;;;;6305035;22;20025;-90
2023/05/02 08:48:41;;;;;;;0.10;0.10;;;9.80;99.90;;;;;;6307507;22;20335;-91
2023/05/02 08:51:13;;;;;;;0.10;0.10;;;9.70;99.90;;;;;;6305566;22;19999;-91
2023/05/02 08:53:39;;;;;;;0.00;0.00;;;9.80;99.90;;;;;;6306875;22;20007;-90
2023/05/02 08:56:09;;;;;;;0.00;0.00;;;9.80;99.90;;;;;;6299347;22;20320;-91
2023/05/02 08:58:36;;;;;;;0.00;0.00;;;9.80;99.90;;;;;;6301653;22;20003;-90
2023/05/02 09:01:08;;;;;;;0.10;0.10;;;9.90;99.90;;;;;;6304247;22;20007;-91
2023/05/02 09:03:35;;;;;;;0.10;0.10;;;9.60;99.90;;;;;;6304857;22;20003;-90
2023/05/02 09:06:31;;;;;;;0.10;0.10;;;9.90;99.90;;;;;;6301307;22;19999;-90
2023/05/02 09:08:59;;;;;;;0.10;0.10;;;11.00;99.90;;;;;;6273031;22;20368;-90
2023/05/02 09:11:25;;;;;;;0.10;0.10;;;10.30;99.90;;;;;;6304920;22;20003;-90
2023/05/02 09:13:51;;;;;;;0.00;0.00;;;10.50;99.90;;;;;;6305143;22;19999;-90
2023/05/02 09:16:21;;;;;;;0.00;0.00;;;10.50;99.90;;;;;;6305388;22;20007;-91
2023/05/02 09:18:57;;;;;;;0.10;0.10;;;10.70;99.90;;;;;;6303883;22;20003;-89
2023/05/02 09:21:25;;;;;;;0.00;0.00;;;10.70;99.90;;;;;;6304831;22;20096;-90
2023/05/02 09:23:52;;;;;;;0.00;0.00;;;10.40;99.90;;;;;;6304329;22;20007;-89
2023/05/02 09:26:25;;;;;;;0.00;0.00;;;10.60;99.90;;;;;;6304850;22;20007;-90
2023/05/02 09:28:53;;;;;;;0.10;0.10;;;10.60;99.90;;;;;;6304951;22;20007;-92
2023/05/02 09:31:24;;;;;;;0.10;0.10;;;10.60;99.90;;;;;;6306885;22;20328;-91
2023/05/02 09:33:54;;;;;;;0.00;0.00;;;10.30;99.90;;;;;;6304739;22;20007;-91
2023/05/02 09:36:20;;;;;;;0.10;0.10;;;10.10;99.90;;;;;;6304958;22;20037;-90
2023/05/02 09:38:48;;;;;;;0.00;0.00;;;10.00;99.90;;;;;;6305789;22;20003;-91
2023/05/02 09:41:14;;;;;;;0.10;0.10;;;;;;;;;;6307738;22;20004;-89
2023/05/02 09:43:40;;;;;;;0.10;0.10;;;;;;;;;;6305331;22;20000;-92
2023/05/02 09:46:10;;;;;;;0.00;0.00;;;9.80;99.90;;;;;;6305124;22;20090;-90
2023/05/02 09:48:56;;;;;;;0.10;0.10;;;9.90;99.90;;;;;;6304146;22;20000;-90
2023/05/02 09:51:24;;;;;;;0.10;0.10;;;10.00;99.90;;;;;;6301781;22;20000;-91
2023/05/02 09:53:51;;;;;;;0.10;0.10;;;10.00;99.90;;;;;;6305588;22;20006;-89
2023/05/02 09:56:17;;;;;;;0.10;0.10;;;10.00;99.90;;;;;;6304664;22;20493;-90
2023/05/02 09:58:43;;;;;;;0.00;0.00;;;;;;;;;;6302520;22;20007;-90
2023/05/02 10:01:16;;;;;;;0.00;0.00;;;10.10;99.90;;;;;;6299900;22;20014;-90
2023/05/02 10:03:46;;;;;;;0.10;0.10;;;10.20;99.90;;;;;;6303808;22;20000;-92
2023/05/02 10:06:12;;;;;;;0.10;0.10;;;;;;;;;;6301202;22;20003;-90
2023/05/02 10:08:40;;;;;;;0.10;0.10;;;10.20;99.90;;;;;;6302755;22;20030;-90
2023/05/02 10:11:07;;;;;;;0.00;0.00;;;10.30;99.90;;;;;;6302336;22;20010;-90
2023/05/02 10:13:34;;;;;;;0.10;0.10;;;10.20;99.90;;;;;;6276562;22;20011;-92
2023/05/02 10:16:02;;;;;;;0.00;0.00;;;10.00;99.90;;;;;;6304099;22;20078;-90
2023/05/02 10:18:46;;;;;;;0.00;0.00;;;10.00;99.90;;;;;;6303465;22;20053;-90
2023/05/02 10:21:13;;;;;;;0.10;0.10;;;10.00;99.90;;;;;;6303358;22;20010;-90
2023/05/02 10:23:43;;;;;;;0.10;0.10;;;10.10;99.90;;;;;;6305080;22;20070;-91
2023/05/02 10:26:11;;;;;;;0.10;0.10;;;10.10;99.90;;;;;;6302854;22;19999;-90
2023/05/02 10:28:38;;;;;;;0.10;0.10;;;10.60;99.90;;;;;;6303657;22;20083;-91
2023/05/02 10:31:04;;;;;;;0.08;0.08;;;;;;;;;;6302866;22;20012;-91
2023/05/02 10:33:30;;;;;;;0.05;0.05;;;;;;;;;;6304099;22;20042;-90
2023/05/02 10:35:56;;;;;;;0.00;0.00;;;11.00;99.90;;;;;;6303146;22;20498;-90
2023/05/02 10:38:23;;;;;;;0.00;0.00;;;11.10;99.40;;;;;;6303971;22;20003;-90
2023/05/02 10:41:12;;;;;;;0.00;0.00;;;11.00;98.90;;;;;;6304770;22;20010;-91
2023/05/02 10:43:38;;;;;;;0.10;0.10;;;;;;;;;;6301628;22;20090;-91
2023/05/02 10:46:31;;;;;;;0.10;0.10;;;11.30;98.00;;;;;;6304393;22;19999;-91
2023/05/02 10:49:05;;;;;;;0.10;0.10;;;11.30;98.50;;;;;;6303193;22;20000;-90
2023/05/02 10:51:31;;;;;;;0.03;0.03;;;11.30;98.00;;;;;;6304899;22;20006;-91
2023/05/02 10:54:33;;;;;;;0.10;0.10;;;11.50;99.70;;;;;;6303475;22;20007;-91
2023/05/02 10:57:02;;;;;;;0.00;0.00;;;11.60;97.40;;;;;;6156195;23;20084;-91
2023/05/02 10:59:45;;;;;;;0.00;0.00;;;11.20;96.20;;;;;;6277793;22;20029;-89
2023/05/02 11:02:31;;;;;;;0.00;0.00;;;11.50;96.20;;;;;;6306311;22;20007;-90
2023/05/02 11:05:04;;;;;;;0.10;0.10;;;10.70;97.20;;;;;;6279816;22;20015;-89
2023/05/02 11:07:30;;;;;;;0.10;0.10;;;11.30;96.30;;;;;;6304089;22;20441;-92
2023/05/02 11:10:26;;;;;;;0.10;0.10;;;11.30;96.40;;;;;;6305910;22;20007;-89
2023/05/02 11:13:00;;;;;;;0.00;0.00;;;11.10;95.90;;;;;;6305707;22;20028;-91
2023/05/02 11:15:26;;;;;;;0.00;0.00;;;;;;;;;;6306746;22;20090;-91
2023/05/02 11:18:08;;;;;;;0.10;0.10;;;11.20;94.10;;;;;;6306631;22;20086;-91
2023/05/02 11:20:39;;;;;;;0.10;0.10;;;11.10;95.20;;;;;;6306993;22;20058;-91
2023/05/02 11:23:20;;;;;;;0.10;0.10;;;11.60;94.50;;;;;;6305001;22;20042;-88
2023/05/02 11:25:50;;;;;;;0.10;0.10;;;11.50;94.10;;;;;;6332093;22;19995;-90
2023/05/02 11:28:34;;;;;;;;;;;10.90;94.20;;;;;;6304266;22;20086;-89
2023/05/02 11:31:00;;;;;;;0.00;0.00;;;11.00;94.00;;;;;;6306508;22;19964;-90
2023/05/02 11:33:27;;;;;;;0.00;0.00;;;11.20;94.60;;;;;;6305547;22;20011;-88
2023/05/02 11:35:53;;;;;;;0.00;0.00;;;12.20;92.90;;;;;;6305103;22;20003;-89
2023/05/02 11:38:20;;;;;;;0.00;0.00;;;11.60;93.30;;;;;;6305549;22;20029;-89
2023/05/02 11:40:57;;;;;;;0.00;0.00;;;12.20;94.90;;;;;;6305947;22;20409;-91
2023/05/02 11:43:24;;;;;;;0.00;0.00;;;12.70;93.50;;;;;;6305972;22;20031;-91
2023/05/02 11:45:51;;;;;;;0.10;0.10;;;;;;;;;;6306423;22;20097;-90
2023/05/02 11:48:19;;;;;;;0.00;0.00;;;13.10;91.20;;;;;;6306208;22;20003;-87
2023/05/02 11:50:50;;;;;;;0.00;0.00;;;12.70;89.00;;;;;;6304690;22;20011;-91
2023/05/02 11:53:28;;;;;;;0.00;0.00;;;12.90;90.70;;;;;;6305245;22;20003;-89
2023/05/02 11:55:58;;;;;;;0.10;0.10;;;11.80;91.70;;;;;;6305790;22;20013;-90
2023/05/02 11:58:28;;;;;;;0.00;0.00;;;11.60;90.30;;;;;;6304166;22;20042;-90
2023/05/02 12:00:54;;;;;;;0.10;0.10;;;11.60;92.80;;;;;;6304512;22;20052;-91
2023/05/02 12:03:30;;;;;;;0.00;0.00;;;11.80;91.30;;;;;;6306155;22;20003;-90
2023/05/02 12:06:19;;;;;;;0.00;0.00;;;12.20;90.60;;;;;;6305290;22;20086;-91
2023/05/02 12:08:45;;;;;;;0.03;0.03;;;;;;;;;;6306227;22;19995;-92
2023/05/02 12:11:15;;;;;;;0.10;0.10;;;12.20;89.30;;;;;;6306090;22;19999;-91
2023/05/02 12:13:46;;;;;;;0.10;0.10;;;12.10;89.40;;;;;;6305510;22;20003;-91
2023/05/02 12:16:12;;;;;;;0.10;0.10;;;;;;;;;;6305458;22;20003;-91
2023/05/02 12:18:38;;;;;;;0.00;0.00;;;12.30;86.60;;;;;;6305330;22;20013;-90
2023/05/02 12:21:04;;;;;;;0.10;0.10;;;12.00;89.00;;;;;;6304876;22;20078;-89
2023/05/02 12:23:30;;;;;;;0.00;0.00;;;11.90;91.10;;;;;;6303216;22;20010;-89
2023/05/02 12:25:55;;;;;;;0.00;0.00;;;12.30;87.90;;;;;;6303754;22;20007;-90
2023/05/02 12:28:22;;;;;;;0.00;0.00;;;12.80;90.20;;;;;;6303476;22;20048;-90
2023/05/02 12:30:50;;;;;;;0.05;0.05;;;13.10;87.90;;;;;;6304666;22;20014;-90
2023/05/02 12:33:16;;;;;;;0.00;0.00;;;;;;;;;;6299694;22;20011;-90
2023/05/02 12:35:42;;;;;;;0.00;0.00;;;;;;;;;;6304070;22;20007;-92
2023/05/02 12:38:21;;;;;;;0.10;0.10;;;12.00;86.30;;;;;;6305176;22;20014;-90
2023/05/02 12:40:52;;;;;;;0.00;0.00;;;12.20;87.30;;;;;;6305408;22;20495;-89
2023/05/02 12:43:19;;;;;;;0.00;0.00;;;;;;;;;;6305308;22;20032;-91
2023/05/02 12:45:47;;;;;;;0.10;0.10;;;;;;;;;;6305372;22;20000;-90
2023/05/02 12:48:26;;;;;;;0.00;0.00;;;11.90;88.20;;;;;;6305409;22;20129;-90
2023/05/02 12:50:53;;;;;;;0.00;0.00;;;11.70;87.30;;;;;;6304356;22;19999;-89
2023/05/02 12:53:42;;;;;;;0.00;0.00;;;12.00;88.10;;;;;;6304446;22;20004;-89
2023/05/02 12:56:09;;;;;;;0.00;0.00;;;12.60;89.90;;;;;;6305209;22;20007;-90
2023/05/02 12:58:42;;;;;;;0.00;0.00;;;13.00;85.60;;;;;;6304027;22;20061;-91
2023/05/02 13:01:09;;;;;;;0.00;0.00;;;;;;;;;;6304721;22;21020;-89
2023/05/02 13:03:35;;;;;;;0.00;0.00;;;;;;;;;;6306038;22;20004;-89
2023/05/02 13:06:01;;;;;;;0.00;0.00;;;;;;;;;;6306431;22;20006;-90
2023/05/02 13:08:28;;;;;;;0.00;0.00;;;;;;;;;;6280425;22;20084;-88
2023/05/02 13:10:54;;;;;;;0.00;0.00;;;12.30;84.80;;;;;;6306034;22;20003;-88
2023/05/02 13:13:19;;;;;;;0.00;0.00;;;12.20;84.60;;;;;;6305574;22;20514;-89
2023/05/02 13:15:45;;;;;;;0.10;0.10;;;12.10;85.50;;;;;;6306008;22;20003;-91
2023/05/02 13:18:11;;;;;;;0.00;0.00;;;;;;;;;;6305910;22;20014;-91
2023/05/02 13:20:37;;;;;;;0.00;0.00;;;;;;;;;;6304096;22;20003;-90